sensor_id;sensor_type;location;lat;lon;timestamp;temperature;humidity
40516;DHT22;26216;53.724;9.898;2023-10-08T00:00:47;14.00;99.90
40516;DHT22;26216;53.724;9.898;2023-10-08T00:03:21;14.00;99.90
40516;DHT22;26216;53.724;9.898;2023-10-08T00:05:48;13.90;99.90
40516;DHT22;26216;53.724;9.898;2023-10-08T00:08:17;13.90;99.90
40516;DHT22;26216;53.724;9.898;2023-10-08T00:10:43;13.90;99.90
40516;DHT22;26216;53.724;9.898;2023-10-08T00:13:11;13.90;99.90
40516;DHT22;26216;53.724;9.898;2023-10-08T00:15:39;13.90;99.90
40516;DHT22;26216;53.724;9.898;2023-10-08T00:18:15;13.90;99.90
40516;DHT22;26216;53.724;9.898;2023-10-08T00:20:42;13.90;99.90
40516;DHT22;26216;53.724;9.898;2023-10-08T00:23:13;13.90;99.90
40516;DHT22;26216;53.724;9.898;2023-10-08T00:25:41;13.90;99.90
40516;DHT22;26216;53.724;9.898;2023-10-08T00:28:08;13.90;99.90
40516;DHT22;26216;53.724;9.898;2023-10-08T00:30:40;13.90;99.90
40516;DHT22;26216;53.724;9.898;2023-10-08T00:33:08;13.90;99.90
40516;DHT22;26216;53.724;9.898;2023-10-08T00:35:41;13.90;99.90
40516;DHT22;26216;53.724;9.898;2023-10-08T00:38:11;13.90;99.90
40516;DHT22;26216;53.724;9.898;2023-10-08T00:40:46;13.90;99.90
40516;DHT22;26216;53.724;9.898;2023-10-08T00:43:33;13.90;99.90
40516;DHT22;26216;53.724;9.898;2023-10-08T00:46:03;13.90;99.90
40516;DHT22;26216;53.724;9.898;2023-10-08T00:48:30;13.90;99.90
40516;DHT22;26216;53.724;9.898;2023-10-08T00:51:04;13.90;99.90
40516;DHT22;26216;53.724;9.898;2023-10-08T00:54:00;13.90;99.90
40516;DHT22;26216;53.724;9.898;2023-10-08T00:56:33;13.90;99.90
40516;DHT22;26216;53.724;9.898;2023-10-08T00:59:17;13.90;99.90
40516;DHT22;26216;53.724;9.898;2023-10-08T01:01:47;13.80;99.90
40516;DHT22;26216;53.724;9.898;2023-10-08T01:04:21;13.90;99.90
40516;DHT22;26216;53.724;9.898;2023-10-08T01:06:55;13.80;99.90
40516;DHT22;26216;53.724;9.898;2023-10-08T01:09:25;13.80;99.90
40516;DHT22;26216;53.724;9.898;2023-10-08T01:12:27;13.80;99.90
40516;DHT22;26216;53.724;9.898;2023-10-08T01:15:02;13.80;99.90
40516;DHT22;26216;53.724;9.898;2023-10-08T01:17:49;13.80;99.90
40516;DHT22;26216;53.724;9.898;2023-10-08T01:20:23;13.90;99.90
40516;DHT22;26216;53.724;9.898;2023-10-08T01:23:09;13.80;99.90
40516;DHT22;26216;53.724;9.898;2023-10-08T01:25:45;13.80;99.90
40516;DHT22;26216;53.724;9.898;2023-10-08T01:28:16;13.80;99.90
40516;DHT22;26216;53.724;9.898;2023-10-08T01:30:53;13.80;99.90
40516;DHT22;26216;53.724;9.898;2023-10-08T01:33:20;13.90;99.90
40516;DHT22;26216;53.724;9.898;2023-10-08T01:35:54;13.90;99.90
40516;DHT22;26216;53.724;9.898;2023-10-08T01:38:20;13.90;99.90
40516;DHT22;26216;53.724;9.898;2023-10-08T01:40:50;13.90;99.90
40516;DHT22;26216;53.724;9.898;2023-10-08T01:43:19;13.90;99.90
40516;DHT22;26216;53.724;9.898;2023-10-08T01:45:46;13.90;99.90
40516;DHT22;26216;53.724;9.898;2023-10-08T01:48:15;13.90;99.90
40516;DHT22;26216;53.724;9.898;2023-10-08T01:50:55;13.90;99.90
40516;DHT22;26216;53.724;9.898;2023-10-08T01:53:24;13.90;99.90
40516;DHT22;26216;53.724;9.898;2023-10-08T01:55:52;13.90;99.90
40516;DHT22;26216;53.724;9.898;2023-10-08T01:58:20;13.90;99.90
40516;DHT22;26216;53.724;9.898;2023-10-08T02:00:48;13.90;99.90
40516;DHT22;26216;53.724;9.898;2023-10-08T02:03:16;13.90;99.90
40516;DHT22;26216;53.724;9.898;2023-10-08T02:05:44;13.90;99.90
40516;DHT22;26216;53.724;9.898;2023-10-08T02:08:11;13.90;99.90
40516;DHT22;26216;53.724;9.898;2023-10-08T02:10:42;13.90;99.90
40516;DHT22;26216;53.724;9.898;2023-10-08T02:13:13;13.90;99.90
40516;DHT22;26216;53.724;9.898;2023-10-08T02:15:49;13.90;99.90
40516;DHT22;26216;53.724;9.898;2023-10-08T02:18:18;13.80;99.90
40516;DHT22;26216;53.724;9.898;2023-10-08T02:20:44;13.80;99.90
40516;DHT22;26216;53.724;9.898;2023-10-08T02:23:10;13.90;99.90
40516;DHT22;26216;53.724;9.898;2023-10-08T02:25:39;13.80;99.90
40516;DHT22;26216;53.724;9.898;2023-10-08T02:28:08;13.80;99.90
40516;DHT22;26216;53.724;9.898;2023-10-08T02:30:37;13.80;99.90
40516;DHT22;26216;53.724;9.898;2023-10-08T02:33:07;13.80;99.90
40516;DHT22;26216;53.724;9.898;2023-10-08T02:35:40;13.80;99.90
40516;DHT22;26216;53.724;9.898;2023-10-08T02:38:12;13.80;99.90
40516;DHT22;26216;53.724;9.898;2023-10-08T02:40:44;13.80;99.90
40516;DHT22;26216;53.724;9.898;2023-10-08T02:43:13;13.80;99.90
40516;DHT22;26216;53.724;9.898;2023-10-08T02:45:41;13.70;99.90
40516;DHT22;26216;53.724;9.898;2023-10-08T02:48:08;13.70;99.90
40516;DHT22;26216;53.724;9.898;2023-10-08T02:50:43;13.70;99.90
40516;DHT22;26216;53.724;9.898;2023-10-08T02:53:12;13.70;99.90
40516;DHT22;26216;53.724;9.898;2023-10-08T02:55:43;13.70;99.90
40516;DHT22;26216;53.724;9.898;2023-10-08T02:58:13;13.70;99.90
40516;DHT22;26216;53.724;9.898;2023-10-08T03:00:48;13.70;99.90
40516;DHT22;26216;53.724;9.898;2023-10-08T03:03:18;13.70;99.90
40516;DHT22;26216;53.724;9.898;2023-10-08T03:05:45;13.70;99.90
40516;DHT22;26216;53.724;9.898;2023-10-08T03:08:15;13.70;99.90
40516;DHT22;26216;53.724;9.898;2023-10-08T03:10:49;13.60;99.90
40516;DHT22;26216;53.724;9.898;2023-10-08T03:13:17;13.60;99.90
40516;DHT22;26216;53.724;9.898;2023-10-08T03:15:43;13.60;99.90
40516;DHT22;26216;53.724;9.898;2023-10-08T03:18:24;13.60;99.90
40516;DHT22;26216;53.724;9.898;2023-10-08T03:20:50;13.60;99.90
40516;DHT22;26216;53.724;9.898;2023-10-08T03:23:17;13.60;99.90
40516;DHT22;26216;53.724;9.898;2023-10-08T03:25:53;13.60;99.90
40516;DHT22;26216;53.724;9.898;2023-10-08T03:28:38;13.50;99.90
40516;DHT22;26216;53.724;9.898;2023-10-08T03:31:06;13.50;99.90
40516;DHT22;26216;53.724;9.898;2023-10-08T03:33:40;13.50;99.90
40516;DHT22;26216;53.724;9.898;2023-10-08T03:36:07;13.50;99.90
40516;DHT22;26216;53.724;9.898;2023-10-08T03:38:59;13.50;99.90
40516;DHT22;26216;53.724;9.898;2023-10-08T03:41:36;13.50;99.90
40516;DHT22;26216;53.724;9.898;2023-10-08T03:44:06;13.50;99.90
40516;DHT22;26216;53.724;9.898;2023-10-08T03:46:39;13.40;99.90
40516;DHT22;26216;53.724;9.898;2023-10-08T03:49:06;13.40;99.90
40516;DHT22;26216;53.724;9.898;2023-10-08T03:51:40;13.40;99.90
40516;DHT22;26216;53.724;9.898;2023-10-08T03:54:09;13.40;99.90
40516;DHT22;26216;53.724;9.898;2023-10-08T03:56:35;13.30;99.90
40516;DHT22;26216;53.724;9.898;2023-10-08T03:59:03;13.30;99.90
40516;DHT22;26216;53.724;9.898;2023-10-08T04:01:44;13.30;99.90
40516;DHT22;26216;53.724;9.898;2023-10-08T04:04:10;13.20;99.90
40516;DHT22;26216;53.724;9.898;2023-10-08T04:06:43;13.20;99.90
40516;DHT22;26216;53.724;9.898;2023-10-08T04:09:17;13.20;99.90
40516;DHT22;26216;53.724;9.898;2023-10-08T04:11:50;13.20;99.90
40516;DHT22;26216;53.724;9.898;2023-10-08T04:14:17;13.10;99.90
40516;DHT22;26216;53.724;9.898;2023-10-08T04:16:43;13.10;99.90
40516;DHT22;26216;53.724;9.898;2023-10-08T04:19:10;13.10;99.90
40516;DHT22;26216;53.724;9.898;2023-10-08T04:21:36;13.10;99.90
40516;DHT22;26216;53.724;9.898;2023-10-08T04:24:03;13.00;99.90
40516;DHT22;26216;53.724;9.898;2023-10-08T04:26:30;13.00;99.90
40516;DHT22;26216;53.724;9.898;2023-10-08T04:28:58;13.00;99.90
40516;DHT22;26216;53.724;9.898;2023-10-08T04:31:27;13.00;99.90
40516;DHT22;26216;53.724;9.898;2023-10-08T04:34:12;12.90;99.90
40516;DHT22;26216;53.724;9.898;2023-10-08T04:36:45;12.90;99.90
40516;DHT22;26216;53.724;9.898;2023-10-08T04:39:14;12.90;99.90
40516;DHT22;26216;53.724;9.898;2023-10-08T04:41:47;12.90;99.90
40516;DHT22;26216;53.724;9.898;2023-10-08T04:44:20;12.90;99.90
40516;DHT22;26216;53.724;9.898;2023-10-08T04:46:47;12.80;99.90
40516;DHT22;26216;53.724;9.898;2023-10-08T04:49:16;12.90;99.90
40516;DHT22;26216;53.724;9.898;2023-10-08T04:52:07;12.80;99.90
40516;DHT22;26216;53.724;9.898;2023-10-08T04:54:44;12.80;99.90
40516;DHT22;26216;53.724;9.898;2023-10-08T04:57:31;12.90;99.90
40516;DHT22;26216;53.724;9.898;2023-10-08T04:59:59;12.80;99.90
40516;DHT22;26216;53.724;9.898;2023-10-08T05:02:26;12.80;99.90
40516;DHT22;26216;53.724;9.898;2023-10-08T05:05:02;12.80;99.90
40516;DHT22;26216;53.724;9.898;2023-10-08T05:07:37;12.80;99.90
40516;DHT22;26216;53.724;9.898;2023-10-08T05:10:13;12.80;99.90
40516;DHT22;26216;53.724;9.898;2023-10-08T05:12:55;12.80;99.90
40516;DHT22;26216;53.724;9.898;2023-10-08T05:15:41;12.80;99.90
40516;DHT22;26216;53.724;9.898;2023-10-08T05:18:13;12.70;99.90
40516;DHT22;26216;53.724;9.898;2023-10-08T05:20:44;12.70;99.90
40516;DHT22;26216;53.724;9.898;2023-10-08T05:23:25;12.70;99.90
40516;DHT22;26216;53.724;9.898;2023-10-08T05:25:55;12.70;99.90
40516;DHT22;26216;53.724;9.898;2023-10-08T05:28:31;12.70;99.90
40516;DHT22;26216;53.724;9.898;2023-10-08T05:31:10;12.70;99.90
40516;DHT22;26216;53.724;9.898;2023-10-08T05:33:40;12.70;99.90
40516;DHT22;26216;53.724;9.898;2023-10-08T05:36:35;12.70;99.90
40516;DHT22;26216;53.724;9.898;2023-10-08T05:39:37;12.70;99.90
40516;DHT22;26216;53.724;9.898;2023-10-08T05:42:08;12.60;99.90
40516;DHT22;26216;53.724;9.898;2023-10-08T05:45:07;12.60;99.90
40516;DHT22;26216;53.724;9.898;2023-10-08T05:47:36;12.60;99.90
40516;DHT22;26216;53.724;9.898;2023-10-08T05:50:03;12.60;99.90
40516;DHT22;26216;53.724;9.898;2023-10-08T05:52:55;12.60;99.90
40516;DHT22;26216;53.724;9.898;2023-10-08T05:55:30;12.60;99.90
40516;DHT22;26216;53.724;9.898;2023-10-08T05:58:06;12.60;99.90
40516;DHT22;26216;53.724;9.898;2023-10-08T06:00:46;12.60;99.90
40516;DHT22;26216;53.724;9.898;2023-10-08T06:03:31;12.50;99.90
40516;DHT22;26216;53.724;9.898;2023-10-08T06:05:59;12.50;99.90
40516;DHT22;26216;53.724;9.898;2023-10-08T06:08:49;12.50;99.90
40516;DHT22;26216;53.724;9.898;2023-10-08T06:11:33;12.50;99.90
40516;DHT22;26216;53.724;9.898;2023-10-08T06:14:19;12.50;99.90
40516;DHT22;26216;53.724;9.898;2023-10-08T06:17:14;12.40;99.90
40516;DHT22;26216;53.724;9.898;2023-10-08T06:19:52;12.40;99.90
40516;DHT22;26216;53.724;9.898;2023-10-08T06:22:18;12.40;99.90
40516;DHT22;26216;53.724;9.898;2023-10-08T06:24:45;12.40;99.90
40516;DHT22;26216;53.724;9.898;2023-10-08T06:27:11;12.40;99.90
40516;DHT22;26216;53.724;9.898;2023-10-08T06:29:42;12.30;99.90
40516;DHT22;26216;53.724;9.898;2023-10-08T06:32:10;12.30;99.90
40516;DHT22;26216;53.724;9.898;2023-10-08T06:34:37;12.30;99.90
40516;DHT22;26216;53.724;9.898;2023-10-08T06:37:06;12.30;99.90
40516;DHT22;26216;53.724;9.898;2023-10-08T06:39:33;12.30;99.90
40516;DHT22;26216;53.724;9.898;2023-10-08T06:42:13;12.30;99.90
40516;DHT22;26216;53.724;9.898;2023-10-08T06:44:43;12.30;99.90
40516;DHT22;26216;53.724;9.898;2023-10-08T06:47:12;12.30;99.90
40516;DHT22;26216;53.724;9.898;2023-10-08T06:49:42;12.30;99.90
40516;DHT22;26216;53.724;9.898;2023-10-08T06:52:09;12.30;99.90
40516;DHT22;26216;53.724;9.898;2023-10-08T06:54:37;12.30;99.90
40516;DHT22;26216;53.724;9.898;2023-10-08T06:57:03;12.30;99.90
40516;DHT22;26216;53.724;9.898;2023-10-08T06:59:28;12.30;99.90
40516;DHT22;26216;53.724;9.898;2023-10-08T07:01:57;12.30;99.90
40516;DHT22;26216;53.724;9.898;2023-10-08T07:04:24;12.30;99.90
40516;DHT22;26216;53.724;9.898;2023-10-08T07:06:50;12.40;99.90
40516;DHT22;26216;53.724;9.898;2023-10-08T07:09:17;12.40;99.90
40516;DHT22;26216;53.724;9.898;2023-10-08T07:11:52;12.40;99.90
40516;DHT22;26216;53.724;9.898;2023-10-08T07:14:22;12.40;99.90
40516;DHT22;26216;53.724;9.898;2023-10-08T07:16:59;12.40;99.90
40516;DHT22;26216;53.724;9.898;2023-10-08T07:19:30;12.40;99.90
40516;DHT22;26216;53.724;9.898;2023-10-08T07:22:07;12.50;99.90
40516;DHT22;26216;53.724;9.898;2023-10-08T07:24:43;12.50;99.90
40516;DHT22;26216;53.724;9.898;2023-10-08T07:27:11;12.50;99.90
40516;DHT22;26216;53.724;9.898;2023-10-08T07:29:37;12.60;99.90
40516;DHT22;26216;53.724;9.898;2023-10-08T07:32:03;12.60;99.90
40516;DHT22;26216;53.724;9.898;2023-10-08T07:34:51;12.70;99.90
40516;DHT22;26216;53.724;9.898;2023-10-08T07:37:23;12.70;99.90
40516;DHT22;26216;53.724;9.898;2023-10-08T07:39:49;12.70;99.90
40516;DHT22;26216;53.724;9.898;2023-10-08T07:42:16;12.80;99.90
40516;DHT22;26216;53.724;9.898;2023-10-08T07:44:42;12.90;99.90
40516;DHT22;26216;53.724;9.898;2023-10-08T07:47:09;12.90;99.90
40516;DHT22;26216;53.724;9.898;2023-10-08T07:49:40;13.00;99.90
40516;DHT22;26216;53.724;9.898;2023-10-08T07:52:08;13.10;99.90
40516;DHT22;26216;53.724;9.898;2023-10-08T07:54:34;13.10;99.90
40516;DHT22;26216;53.724;9.898;2023-10-08T07:57:03;13.20;99.90
40516;DHT22;26216;53.724;9.898;2023-10-08T07:59:37;13.30;99.90
40516;DHT22;26216;53.724;9.898;2023-10-08T08:02:08;13.30;99.90
40516;DHT22;26216;53.724;9.898;2023-10-08T08:04:44;13.40;99.90
40516;DHT22;26216;53.724;9.898;2023-10-08T08:07:12;13.50;99.90
40516;DHT22;26216;53.724;9.898;2023-10-08T08:09:52;13.50;99.90
40516;DHT22;26216;53.724;9.898;2023-10-08T08:12:24;13.60;99.90
40516;DHT22;26216;53.724;9.898;2023-10-08T08:14:58;13.60;99.90
40516;DHT22;26216;53.724;9.898;2023-10-08T08:17:24;13.80;99.90
40516;DHT22;26216;53.724;9.898;2023-10-08T08:19:51;13.80;99.90
40516;DHT22;26216;53.724;9.898;2023-10-08T08:22:19;13.90;99.90
40516;DHT22;26216;53.724;9.898;2023-10-08T08:24:52;13.90;99.90
40516;DHT22;26216;53.724;9.898;2023-10-08T08:27:30;14.00;99.90
40516;DHT22;26216;53.724;9.898;2023-10-08T08:30:00;14.10;99.90
40516;DHT22;26216;53.724;9.898;2023-10-08T08:32:46;14.10;99.90
40516;DHT22;26216;53.724;9.898;2023-10-08T08:35:15;14.20;99.90
40516;DHT22;26216;53.724;9.898;2023-10-08T08:37:48;14.20;99.90
40516;DHT22;26216;53.724;9.898;2023-10-08T08:40:18;14.30;99.90
40516;DHT22;26216;53.724;9.898;2023-10-08T08:42:45;14.30;99.90
40516;DHT22;26216;53.724;9.898;2023-10-08T08:45:15;14.40;99.90
40516;DHT22;26216;53.724;9.898;2023-10-08T08:48:19;14.40;99.90
40516;DHT22;26216;53.724;9.898;2023-10-08T08:50:55;14.40;99.90
40516;DHT22;26216;53.724;9.898;2023-10-08T08:53:22;14.50;99.90
40516;DHT22;26216;53.724;9.898;2023-10-08T08:55:50;14.60;99.90
40516;DHT22;26216;53.724;9.898;2023-10-08T08:58:18;14.60;99.90
40516;DHT22;26216;53.724;9.898;2023-10-08T09:00:46;14.70;99.90
40516;DHT22;26216;53.724;9.898;2023-10-08T09:03:13;14.80;99.90
40516;DHT22;26216;53.724;9.898;2023-10-08T09:05:39;14.80;99.90
40516;DHT22;26216;53.724;9.898;2023-10-08T09:08:06;14.90;99.90
40516;DHT22;26216;53.724;9.898;2023-10-08T09:10:34;15.00;99.90
40516;DHT22;26216;53.724;9.898;2023-10-08T09:13:19;15.00;99.90
40516;DHT22;26216;53.724;9.898;2023-10-08T09:15:47;15.10;99.90
40516;DHT22;26216;53.724;9.898;2023-10-08T09:18:14;15.20;99.90
40516;DHT22;26216;53.724;9.898;2023-10-08T09:20:40;15.20;99.90
40516;DHT22;26216;53.724;9.898;2023-10-08T09:23:13;15.30;99.90
40516;DHT22;26216;53.724;9.898;2023-10-08T09:25:44;15.40;99.90
40516;DHT22;26216;53.724;9.898;2023-10-08T09:28:11;15.40;99.90
40516;DHT22;26216;53.724;9.898;2023-10-08T09:30:40;15.40;99.50
40516;DHT22;26216;53.724;9.898;2023-10-08T09:33:10;15.50;99.40
40516;DHT22;26216;53.724;9.898;2023-10-08T09:35:36;15.50;99.50
40516;DHT22;26216;53.724;9.898;2023-10-08T09:38:03;15.60;99.60
40516;DHT22;26216;53.724;9.898;2023-10-08T09:40:30;15.60;99.30
40516;DHT22;26216;53.724;9.898;2023-10-08T09:42:56;15.70;99.90
40516;DHT22;26216;53.724;9.898;2023-10-08T09:45:26;15.70;99.90
40516;DHT22;26216;53.724;9.898;2023-10-08T09:47:54;15.80;99.60
40516;DHT22;26216;53.724;9.898;2023-10-08T09:50:32;15.80;99.60
40516;DHT22;26216;53.724;9.898;2023-10-08T09:53:08;15.80;99.90
40516;DHT22;26216;53.724;9.898;2023-10-08T09:55:37;15.90;99.30
40516;DHT22;26216;53.724;9.898;2023-10-08T09:58:04;15.90;99.40
40516;DHT22;26216;53.724;9.898;2023-10-08T10:00:32;15.90;99.30
40516;DHT22;26216;53.724;9.898;2023-10-08T10:02:59;16.00;99.80
40516;DHT22;26216;53.724;9.898;2023-10-08T10:05:33;16.10;99.90
40516;DHT22;26216;53.724;9.898;2023-10-08T10:08:05;16.10;97.20
40516;DHT22;26216;53.724;9.898;2023-10-08T10:10:37;16.10;97.80
40516;DHT22;26216;53.724;9.898;2023-10-08T10:13:12;16.10;97.90
40516;DHT22;26216;53.724;9.898;2023-10-08T10:15:38;16.20;98.30
40516;DHT22;26216;53.724;9.898;2023-10-08T10:18:28;16.30;98.30
40516;DHT22;26216;53.724;9.898;2023-10-08T10:20:59;16.30;97.40
40516;DHT22;26216;53.724;9.898;2023-10-08T10:23:35;16.40;98.60
40516;DHT22;26216;53.724;9.898;2023-10-08T10:31:51;16.50;98.50
40516;DHT22;26216;53.724;9.898;2023-10-08T10:34:28;16.60;96.40
40516;DHT22;26216;53.724;9.898;2023-10-08T10:36:58;16.60;97.10
40516;DHT22;26216;53.724;9.898;2023-10-08T10:39:26;16.60;97.50
40516;DHT22;26216;53.724;9.898;2023-10-08T10:41:54;16.60;97.50
40516;DHT22;26216;53.724;9.898;2023-10-08T10:44:24;16.60;96.50
40516;DHT22;26216;53.724;9.898;2023-10-08T10:46:50;16.70;97.20
40516;DHT22;26216;53.724;9.898;2023-10-08T10:49:17;16.70;97.50
40516;DHT22;26216;53.724;9.898;2023-10-08T10:51:49;16.80;97.00
40516;DHT22;26216;53.724;9.898;2023-10-08T10:54:18;16.80;97.50
40516;DHT22;26216;53.724;9.898;2023-10-08T10:56:47;16.90;97.60
40516;DHT22;26216;53.724;9.898;2023-10-08T10:59:14;16.90;97.80
40516;DHT22;26216;53.724;9.898;2023-10-08T11:01:48;17.00;97.70
40516;DHT22;26216;53.724;9.898;2023-10-08T11:04:35;17.10;97.60
40516;DHT22;26216;53.724;9.898;2023-10-08T11:07:20;17.20;97.50
40516;DHT22;26216;53.724;9.898;2023-10-08T11:09:47;17.20;96.60
40516;DHT22;26216;53.724;9.898;2023-10-08T11:12:14;17.30;96.70
40516;DHT22;26216;53.724;9.898;2023-10-08T11:14:47;17.30;96.90
40516;DHT22;26216;53.724;9.898;2023-10-08T11:17:15;17.30;96.70
40516;DHT22;26216;53.724;9.898;2023-10-08T11:19:43;17.40;97.10
40516;DHT22;26216;53.724;9.898;2023-10-08T11:22:12;17.40;96.90
40516;DHT22;26216;53.724;9.898;2023-10-08T11:24:45;17.50;96.70
40516;DHT22;26216;53.724;9.898;2023-10-08T11:27:20;17.60;96.70
40516;DHT22;26216;53.724;9.898;2023-10-08T11:29:56;17.60;96.60
40516;DHT22;26216;53.724;9.898;2023-10-08T11:32:26;17.70;95.90
40516;DHT22;26216;53.724;9.898;2023-10-08T11:34:56;17.80;96.70
40516;DHT22;26216;53.724;9.898;2023-10-08T11:37:32;17.80;96.30
40516;DHT22;26216;53.724;9.898;2023-10-08T11:40:02;17.90;96.50
40516;DHT22;26216;53.724;9.898;2023-10-08T11:42:38;18.00;96.30
40516;DHT22;26216;53.724;9.898;2023-10-08T11:45:05;18.10;95.90
40516;DHT22;26216;53.724;9.898;2023-10-08T11:47:52;18.10;96.10
40516;DHT22;26216;53.724;9.898;2023-10-08T11:50:29;18.20;96.50
40516;DHT22;26216;53.724;9.898;2023-10-08T11:53:01;18.20;95.70
40516;DHT22;26216;53.724;9.898;2023-10-08T11:55:35;18.30;96.10
40516;DHT22;26216;53.724;9.898;2023-10-08T11:58:04;18.30;95.10
40516;DHT22;26216;53.724;9.898;2023-10-08T12:00:38;18.40;95.70
40516;DHT22;26216;53.724;9.898;2023-10-08T12:03:10;18.40;95.60
40516;DHT22;26216;53.724;9.898;2023-10-08T12:05:38;18.50;95.00
40516;DHT22;26216;53.724;9.898;2023-10-08T12:08:16;18.50;93.90
40516;DHT22;26216;53.724;9.898;2023-10-08T12:10:46;18.50;93.30
40516;DHT22;26216;53.724;9.898;2023-10-08T12:13:14;18.50;93.70
40516;DHT22;26216;53.724;9.898;2023-10-08T12:15:42;18.40;94.30
40516;DHT22;26216;53.724;9.898;2023-10-08T12:18:11;18.40;94.00
40516;DHT22;26216;53.724;9.898;2023-10-08T12:20:52;18.40;94.10
40516;DHT22;26216;53.724;9.898;2023-10-08T12:23:20;18.40;94.50
40516;DHT22;26216;53.724;9.898;2023-10-08T12:25:55;18.40;94.10
40516;DHT22;26216;53.724;9.898;2023-10-08T12:28:22;18.40;94.00
40516;DHT22;26216;53.724;9.898;2023-10-08T12:30:51;18.40;93.90
40516;DHT22;26216;53.724;9.898;2023-10-08T12:33:22;18.50;94.40
40516;DHT22;26216;53.724;9.898;2023-10-08T12:35:51;18.40;94.30
40516;DHT22;26216;53.724;9.898;2023-10-08T12:38:22;18.50;94.00
40516;DHT22;26216;53.724;9.898;2023-10-08T12:40:49;18.50;94.20
40516;DHT22;26216;53.724;9.898;2023-10-08T12:43:25;18.50;93.90
40516;DHT22;26216;53.724;9.898;2023-10-08T12:45:54;18.50;93.70
40516;DHT22;26216;53.724;9.898;2023-10-08T12:50:50;18.50;94.10
40516;DHT22;26216;53.724;9.898;2023-10-08T12:53:27;18.60;94.00
40516;DHT22;26216;53.724;9.898;2023-10-08T12:55:56;18.60;94.30
40516;DHT22;26216;53.724;9.898;2023-10-08T12:58:24;18.60;94.10
40516;DHT22;26216;53.724;9.898;2023-10-08T13:00:54;18.60;93.80
40516;DHT22;26216;53.724;9.898;2023-10-08T13:03:29;18.70;93.70
40516;DHT22;26216;53.724;9.898;2023-10-08T13:05:59;18.70;93.60
40516;DHT22;26216;53.724;9.898;2023-10-08T13:08:32;18.70;94.00
40516;DHT22;26216;53.724;9.898;2023-10-08T13:11:02;18.70;94.40
40516;DHT22;26216;53.724;9.898;2023-10-08T13:13:33;18.80;94.10
40516;DHT22;26216;53.724;9.898;2023-10-08T13:16:00;18.80;93.90
40516;DHT22;26216;53.724;9.898;2023-10-08T13:18:36;18.80;93.80
40516;DHT22;26216;53.724;9.898;2023-10-08T13:21:04;18.80;94.20
40516;DHT22;26216;53.724;9.898;2023-10-08T13:23:30;18.80;94.30
40516;DHT22;26216;53.724;9.898;2023-10-08T13:25:59;18.80;94.50
40516;DHT22;26216;53.724;9.898;2023-10-08T13:28:30;18.80;94.40
40516;DHT22;26216;53.724;9.898;2023-10-08T13:31:03;18.80;94.20
40516;DHT22;26216;53.724;9.898;2023-10-08T13:33:38;18.90;94.20
40516;DHT22;26216;53.724;9.898;2023-10-08T13:36:08;18.90;94.00
40516;DHT22;26216;53.724;9.898;2023-10-08T13:38:36;18.90;94.40
40516;DHT22;26216;53.724;9.898;2023-10-08T13:41:03;18.90;94.50
40516;DHT22;26216;53.724;9.898;2023-10-08T13:43:33;19.00;94.50
40516;DHT22;26216;53.724;9.898;2023-10-08T13:46:09;19.00;94.50
40516;DHT22;26216;53.724;9.898;2023-10-08T13:48:40;19.00;94.00
40516;DHT22;26216;53.724;9.898;2023-10-08T13:51:07;19.10;93.80
40516;DHT22;26216;53.724;9.898;2023-10-08T13:53:56;19.10;93.50
40516;DHT22;26216;53.724;9.898;2023-10-08T13:56:34;19.10;93.40
40516;DHT22;26216;53.724;9.898;2023-10-08T13:59:04;19.10;93.00
40516;DHT22;26216;53.724;9.898;2023-10-08T14:01:38;19.10;93.70
40516;DHT22;26216;53.724;9.898;2023-10-08T14:04:07;19.10;94.00
40516;DHT22;26216;53.724;9.898;2023-10-08T14:06:38;19.10;94.20
40516;DHT22;26216;53.724;9.898;2023-10-08T14:09:14;19.10;94.10
40516;DHT22;26216;53.724;9.898;2023-10-08T14:11:50;19.10;93.70
40516;DHT22;26216;53.724;9.898;2023-10-08T14:14:19;19.10;93.70
40516;DHT22;26216;53.724;9.898;2023-10-08T14:16:49;19.10;93.90
40516;DHT22;26216;53.724;9.898;2023-10-08T14:19:18;19.10;93.90
40516;DHT22;26216;53.724;9.898;2023-10-08T14:21:54;19.10;93.90
40516;DHT22;26216;53.724;9.898;2023-10-08T14:24:30;19.10;94.10
40516;DHT22;26216;53.724;9.898;2023-10-08T14:27:04;19.10;94.50
40516;DHT22;26216;53.724;9.898;2023-10-08T14:29:39;19.00;94.60
40516;DHT22;26216;53.724;9.898;2023-10-08T14:32:13;19.00;94.60
40516;DHT22;26216;53.724;9.898;2023-10-08T14:34:41;19.00;94.60
40516;DHT22;26216;53.724;9.898;2023-10-08T14:37:13;18.90;94.60
40516;DHT22;26216;53.724;9.898;2023-10-08T14:39:58;18.90;94.60
40516;DHT22;26216;53.724;9.898;2023-10-08T14:42:59;18.80;94.60
40516;DHT22;26216;53.724;9.898;2023-10-08T14:45:34;18.80;94.60
40516;DHT22;26216;53.724;9.898;2023-10-08T14:48:01;18.70;94.40
40516;DHT22;26216;53.724;9.898;2023-10-08T14:50:28;18.70;94.30
40516;DHT22;26216;53.724;9.898;2023-10-08T14:52:57;18.60;94.20
40516;DHT22;26216;53.724;9.898;2023-10-08T14:55:25;18.60;94.40
40516;DHT22;26216;53.724;9.898;2023-10-08T14:57:52;18.60;94.50
40516;DHT22;26216;53.724;9.898;2023-10-08T15:00:19;18.50;94.50
40516;DHT22;26216;53.724;9.898;2023-10-08T15:02:53;18.40;94.50
40516;DHT22;26216;53.724;9.898;2023-10-08T15:05:22;18.40;94.60
40516;DHT22;26216;53.724;9.898;2023-10-08T15:07:52;18.30;94.70
40516;DHT22;26216;53.724;9.898;2023-10-08T15:10:18;18.20;94.90
40516;DHT22;26216;53.724;9.898;2023-10-08T15:12:45;18.20;95.00
40516;DHT22;26216;53.724;9.898;2023-10-08T15:15:11;18.10;94.90
40516;DHT22;26216;53.724;9.898;2023-10-08T15:17:44;18.10;95.10
40516;DHT22;26216;53.724;9.898;2023-10-08T15:20:15;18.00;94.90
40516;DHT22;26216;53.724;9.898;2023-10-08T15:22:43;17.90;95.00
40516;DHT22;26216;53.724;9.898;2023-10-08T15:25:13;17.90;95.20
40516;DHT22;26216;53.724;9.898;2023-10-08T15:27:40;17.80;95.40
40516;DHT22;26216;53.724;9.898;2023-10-08T15:30:11;17.80;95.50
40516;DHT22;26216;53.724;9.898;2023-10-08T15:32:42;17.70;95.40
40516;DHT22;26216;53.724;9.898;2023-10-08T15:35:15;17.70;95.50
40516;DHT22;26216;53.724;9.898;2023-10-08T15:37:46;17.60;95.60
40516;DHT22;26216;53.724;9.898;2023-10-08T15:40:13;17.60;95.70
40516;DHT22;26216;53.724;9.898;2023-10-08T15:42:53;17.50;95.70
40516;DHT22;26216;53.724;9.898;2023-10-08T15:45:20;17.50;95.80
40516;DHT22;26216;53.724;9.898;2023-10-08T15:47:46;17.40;95.80
40516;DHT22;26216;53.724;9.898;2023-10-08T15:50:13;17.40;96.00
40516;DHT22;26216;53.724;9.898;2023-10-08T15:52:40;17.40;96.00
40516;DHT22;26216;53.724;9.898;2023-10-08T15:55:08;17.30;96.10
40516;DHT22;26216;53.724;9.898;2023-10-08T15:57:34;17.30;96.10
40516;DHT22;26216;53.724;9.898;2023-10-08T16:00:02;17.20;96.20
40516;DHT22;26216;53.724;9.898;2023-10-08T16:02:29;17.20;96.30
40516;DHT22;26216;53.724;9.898;2023-10-08T16:04:55;17.20;96.30
40516;DHT22;26216;53.724;9.898;2023-10-08T16:07:22;17.20;96.40